Time;durP1;ratioP1;P1;durP2;ratioP2;P2;SDS_P1;SDS_P2;PMS_P1;PMS_P2;Temp;Humidity;BMP_temperature;BMP_pressure;BME280_temperature;BME280_humidity;BME280_pressure;Samples;Min_cycle;Max_cycle;Signal;HPM_P1;HPM_P2
2022/06/28 00:01:59;;;;;;;1.02;0.88;;;;;;;;;;5024715;28;20025;-44
2022/06/28 00:04:26;;;;;;;1.05;0.90;;;;;;;;;;5023971;28;20041;-46
2022/06/28 00:06:52;;;;;;;1.92;1.10;;;;;;;;;;5026306;28;20128;-45
2022/06/28 00:09:17;;;;;;;3.33;1.10;;;;;;;;;;5028304;28;20030;-46
2022/06/28 00:11:44;;;;;;;1.67;0.80;;;;;;;;;;5025800;28;20071;-46
2022/06/28 00:16:55;;;;;;;3.65;1.00;;;;;;;;;;5026825;28;20486;-44
2022/06/28 00:19:21;;;;;;;0.70;0.70;;;;;;;;;;5025001;28;20033;-44
2022/06/28 00:21:48;;;;;;;2.53;1.13;;;;;;;;;;5028108;28;20026;-44
2022/06/28 00:24:14;;;;;;;0.95;0.80;;;;;;;;;;5028124;28;20037;-45
2022/06/28 00:26:41;;;;;;;2.28;0.95;;;;;;;;;;5026215;28;20036;-50
2022/06/28 00:29:07;;;;;;;2.10;1.02;;;;;;;;;;5023905;28;20363;-46
2022/06/28 00:31:33;;;;;;;1.25;0.80;;;;;;;;;;5024178;28;20041;-45
2022/06/28 00:33:58;;;;;;;1.50;0.90;;;;;;;;;;5024621;28;20037;-45
2022/06/28 00:36:24;;;;;;;1.17;0.80;;;;;;;;;;5026647;28;20029;-45
2022/06/28 00:38:50;;;;;;;0.77;0.77;;;;;;;;;;5024736;28;20032;-47
2022/06/28 00:41:16;;;;;;;4.00;1.20;;;;;;;;;;5025075;28;20033;-45
2022/06/28 00:43:42;;;;;;;2.53;1.08;;;;;;;;;;5024182;28;20033;-45
2022/06/28 00:46:08;;;;;;;1.98;0.80;;;;;;;;;;5027658;28;20033;-48
2022/06/28 00:48:34;;;;;;;1.27;0.80;;;;;;;;;;5026584;28;20037;-44
2022/06/28 00:51:01;;;;;;;5.85;0.95;;;;;;;;;;5026589;28;20060;-45
2022/06/28 00:53:27;;;;;;;1.10;1.00;;;;;;;;;;5025244;28;20075;-46
2022/06/28 00:55:53;;;;;;;0.88;0.80;;;;;;;;;;5026169;28;20126;-45
2022/06/28 00:58:19;;;;;;;2.78;0.77;;;;;;;;;;5026744;28;20112;-45
2022/06/28 01:00:48;;;;;;;3.85;1.00;;;;;;;;;;5026990;28;20036;-49
2022/06/28 01:03:19;;;;;;;2.60;0.93;;;;;;;;;;5025030;28;20401;-45
2022/06/28 01:05:45;;;;;;;1.70;0.95;;;;;;;;;;5023374;28;20509;-44
2022/06/28 01:08:12;;;;;;;1.33;1.00;;;;;;;;;;5026022;28;20021;-47
2022/06/28 01:10:38;;;;;;;2.85;0.75;;;;;;;;;;5024708;28;20061;-44
2022/06/28 01:13:05;;;;;;;1.25;0.80;;;;;;;;;;5026078;28;21779;-44
2022/06/28 01:15:31;;;;;;;1.38;0.95;;;;;;;;;;5023387;28;20363;-44
2022/06/28 01:18:00;;;;;;;1.92;0.70;;;;;;;;;;5026594;28;20021;-44
2022/06/28 01:20:26;;;;;;;2.30;0.80;;;;;;;;;;5022925;28;20481;-47
2022/06/28 01:22:54;;;;;;;3.92;0.63;;;;;;;;;;5024165;28;20041;-47
2022/06/28 01:25:21;;;;;;;1.17;0.73;;;;;;;;;;5023653;28;20029;-44
2022/06/28 01:27:48;;;;;;;1.15;0.60;;;;;;;;;;5025046;28;20032;-46
2022/06/28 01:30:14;;;;;;;4.45;0.80;;;;;;;;;;5022600;28;20044;-46
2022/06/28 01:32:41;;;;;;;0.95;0.80;;;;;;;;;;5025383;28;20034;-44
2022/06/28 01:35:07;;;;;;;3.45;0.80;;;;;;;;;;5024404;28;20027;-45
2022/06/28 01:37:34;;;;;;;2.08;1.00;;;;;;;;;;5024794;28;20034;-45
2022/06/28 01:40:00;;;;;;;0.88;0.80;;;;;;;;;;5024946;28;20030;-44
2022/06/28 01:42:29;;;;;;;6.57;1.08;;;;;;;;;;5027757;28;20117;-45
2022/06/28 01:44:56;;;;;;;1.17;0.73;;;;;;;;;;5023095;28;20500;-44
2022/06/28 01:47:23;;;;;;;1.60;0.70;;;;;;;;;;5023081;28;20144;-44
2022/06/28 01:49:49;;;;;;;3.35;1.00;;;;;;;;;;5025216;28;20433;-44
2022/06/28 01:52:15;;;;;;;1.15;1.05;;;;;;;;;;5021334;28;20030;-44
2022/06/28 01:54:41;;;;;;;1.13;0.80;;;;;;;;;;5025622;28;20053;-44
2022/06/28 01:57:07;;;;;;;1.88;0.95;;;;;;;;;;5027542;28;20033;-44
2022/06/28 01:59:33;;;;;;;1.13;0.80;;;;;;;;;;5024746;28;20401;-45
2022/06/28 02:01:59;;;;;;;0.80;0.80;;;;;;;;;;5025757;28;20063;-44
2022/06/28 02:04:27;;;;;;;1.35;0.80;;;;;;;;;;5025484;28;20171;-44
2022/06/28 02:06:55;;;;;;;3.67;0.90;;;;;;;;;;5030608;28;20096;-48
2022/06/28 02:09:21;;;;;;;8.35;1.13;;;;;;;;;;5030625;28;20087;-46
2022/06/28 02:11:47;;;;;;;0.63;0.63;;;;;;;;;;5028620;28;20394;-48
2022/06/28 02:14:12;;;;;;;0.90;0.85;;;;;;;;;;5028128;28;20033;-46
2022/06/28 02:16:38;;;;;;;0.75;0.75;;;;;;;;;;5029061;28;20037;-45
2022/06/28 02:19:04;;;;;;;1.15;1.00;;;;;;;;;;5028069;28;20054;-44
2022/06/28 02:21:37;;;;;;;1.10;0.95;;;;;;;;;;5029161;28;20030;-47
2022/06/28 02:24:04;;;;;;;1.85;0.90;;;;;;;;;;5025511;28;20042;-47
2022/06/28 02:26:32;;;;;;;0.82;0.82;;;;;;;;;;5023814;28;20057;-44
2022/06/28 02:28:59;;;;;;;0.65;0.65;;;;;;;;;;5028830;28;20043;-45
2022/06/28 02:31:25;;;;;;;0.85;0.85;;;;;;;;;;5026616;28;20037;-43
2022/06/28 02:33:51;;;;;;;3.35;0.90;;;;;;;;;;5025438;28;20397;-46
2022/06/28 02:41:45;;;;;;;2.25;0.85;;;;;;;;;;5030343;28;20080;-44
2022/06/28 02:44:11;;;;;;;1.13;0.90;;;;;;;;;;5029020;28;20037;-46
2022/06/28 02:46:37;;;;;;;0.90;0.90;;;;;;;;;;5028434;28;20390;-44
2022/06/28 02:49:03;;;;;;;3.03;1.35;;;;;;;;;;5027943;28;20034;-44
2022/06/28 02:51:29;;;;;;;1.13;0.93;;;;;;;;;;5030395;28;20393;-50
2022/06/28 02:53:55;;;;;;;2.25;0.80;;;;;;;;;;5028459;28;20044;-45
2022/06/28 02:56:21;;;;;;;1.67;0.70;;;;;;;;;;5028192;28;20440;-44
2022/06/28 02:58:47;;;;;;;4.20;0.80;;;;;;;;;;5026172;28;20033;-44
2022/06/28 03:01:13;;;;;;;2.47;0.85;;;;;;;;;;5026788;28;20168;-44
2022/06/28 03:03:39;;;;;;;1.70;0.82;;;;;;;;;;5027941;28;20041;-44
2022/06/28 03:06:05;;;;;;;0.77;0.77;;;;;;;;;;5026067;28;20041;-50
2022/06/28 03:08:32;;;;;;;1.13;0.80;;;;;;;;;;5027078;28;20068;-50
2022/06/28 03:10:58;;;;;;;2.05;0.73;;;;;;;;;;5026983;28;20120;-44
2022/06/28 03:13:23;;;;;;;3.47;1.00;;;;;;;;;;5027199;28;20808;-44
2022/06/28 03:15:49;;;;;;;2.90;1.00;;;;;;;;;;5027201;28;20045;-47
2022/06/28 03:18:15;;;;;;;4.15;0.95;;;;;;;;;;5028827;28;20118;-50
2022/06/28 03:20:41;;;;;;;3.25;1.10;;;;;;;;;;5027466;28;20196;-46
2022/06/28 03:23:07;;;;;;;1.15;1.08;;;;;;;;;;5025812;28;20104;-49
2022/06/28 03:25:32;;;;;;;1.38;0.93;;;;;;;;;;5026898;28;20036;-44
2022/06/28 03:27:58;;;;;;;1.33;0.80;;;;;;;;;;5022744;28;20030;-46
2022/06/28 03:30:25;;;;;;;3.60;1.17;;;;;;;;;;5029558;28;20028;-44
2022/06/28 03:32:50;;;;;;;2.85;0.93;;;;;;;;;;5024580;28;20520;-45
2022/06/28 03:35:16;;;;;;;2.13;0.90;;;;;;;;;;5026555;28;20037;-44
2022/06/28 03:37:42;;;;;;;1.67;0.82;;;;;;;;;;5027966;28;20028;-44
2022/06/28 03:40:08;;;;;;;2.40;1.15;;;;;;;;;;5027546;28;20034;-44
2022/06/28 03:42:33;;;;;;;1.85;0.80;;;;;;;;;;5028619;28;20029;-44
2022/06/28 03:44:59;;;;;;;5.53;1.20;;;;;;;;;;5027023;28;20112;-44
2022/06/28 03:47:25;;;;;;;2.58;1.10;;;;;;;;;;5028033;28;20076;-47
2022/06/28 03:49:51;;;;;;;1.15;1.02;;;;;;;;;;5025022;28;20397;-46
2022/06/28 03:52:16;;;;;;;4.38;1.20;;;;;;;;;;5025707;28;20021;-46
2022/06/28 03:54:42;;;;;;;1.30;0.93;;;;;;;;;;5021070;28;20033;-49
2022/06/28 03:57:08;;;;;;;3.03;1.10;;;;;;;;;;5022374;28;20057;-51
2022/06/28 03:59:36;;;;;;;2.10;1.20;;;;;;;;;;5022750;28;20041;-46
2022/06/28 04:02:04;;;;;;;1.67;1.02;;;;;;;;;;5023784;28;20033;-49
2022/06/28 04:04:30;;;;;;;4.13;1.10;;;;;;;;;;5038177;28;20053;-47
2022/06/28 04:06:56;;;;;;;1.42;0.90;;;;;;;;;;5025105;28;20038;-49
2022/06/28 04:09:21;;;;;;;5.38;1.00;;;;;;;;;;5025891;28;20033;-49
2022/06/28 04:11:47;;;;;;;1.30;0.93;;;;;;;;;;5024216;28;20513;-47
2022/06/28 04:14:14;;;;;;;4.40;1.00;;;;;;;;;;5025043;28;20045;-48
2022/06/28 04:16:59;;;;;;;3.42;1.17;;;;;;;;;;5027469;28;20038;-44
2022/06/28 04:19:47;;;;;;;5.93;1.90;;;;;;;;;;5023146;28;20456;-43
2022/06/28 04:22:13;;;;;;;3.38;1.10;;;;;;;;;;5025765;28;20113;-46
2022/06/28 04:24:39;;;;;;;4.95;1.20;;;;;;;;;;5026637;28;20040;-44
2022/06/28 04:27:04;;;;;;;7.95;1.42;;;;;;;;;;5026968;28;20048;-44
2022/06/28 04:29:30;;;;;;;2.05;0.88;;;;;;;;;;5027345;28;20383;-46
2022/06/28 04:31:56;;;;;;;4.47;0.95;;;;;;;;;;5026225;28;20084;-47
2022/06/28 04:34:22;;;;;;;1.83;1.30;;;;;;;;;;5026137;28;20029;-44
2022/06/28 04:36:48;;;;;;;1.95;0.93;;;;;;;;;;5024115;28;20465;-47
2022/06/28 04:39:13;;;;;;;2.45;1.00;;;;;;;;;;5028221;28;20079;-45
2022/06/28 04:41:39;;;;;;;2.90;1.20;;;;;;;;;;5026342;28;20112;-44
2022/06/28 04:44:05;;;;;;;2.90;0.90;;;;;;;;;;5025958;28;20579;-44
2022/06/28 04:46:30;;;;;;;3.92;1.23;;;;;;;;;;5023928;28;20762;-45
2022/06/28 04:48:56;;;;;;;3.60;1.00;;;;;;;;;;5023197;28;20391;-51
2022/06/28 04:51:22;;;;;;;1.00;1.00;;;;;;;;;;5029319;28;20026;-46
2022/06/28 04:53:48;;;;;;;1.38;1.10;;;;;;;;;;5026193;28;20421;-45
2022/06/28 04:56:15;;;;;;;2.08;0.98;;;;;;;;;;5025163;28;20044;-44
2022/06/28 04:58:40;;;;;;;1.58;1.25;;;;;;;;;;5026945;28;20032;-45
2022/06/28 05:01:07;;;;;;;1.35;0.90;;;;;;;;;;5027037;28;20021;-44
2022/06/28 05:03:32;;;;;;;4.50;1.20;;;;;;;;;;5026690;28;20024;-44
2022/06/28 05:05:58;;;;;;;3.88;1.35;;;;;;;;;;5024986;28;20050;-44
2022/06/28 05:08:24;;;;;;;12.23;1.50;;;;;;;;;;5024750;28;20401;-47
2022/06/28 05:10:50;;;;;;;1.60;1.20;;;;;;;;;;5025755;28;20032;-43
2022/06/28 05:13:15;;;;;;;2.25;1.00;;;;;;;;;;5026006;28;20034;-44
2022/06/28 05:15:41;;;;;;;3.95;1.00;;;;;;;;;;5026624;28;20029;-44
2022/06/28 05:18:07;;;;;;;1.05;0.85;;;;;;;;;;5026038;28;20043;-46
2022/06/28 05:20:33;;;;;;;3.80;1.00;;;;;;;;;;5025963;28;20049;-44
2022/06/28 05:22:58;;;;;;;2.08;1.20;;;;;;;;;;5026137;28;20133;-45
2022/06/28 05:25:25;;;;;;;3.70;1.30;;;;;;;;;;5026216;28;20036;-52
2022/06/28 05:27:51;;;;;;;10.93;1.23;;;;;;;;;;5024336;28;20121;-44
2022/06/28 05:30:17;;;;;;;3.20;1.30;;;;;;;;;;5026084;28;20448;-45
2022/06/28 05:32:43;;;;;;;4.75;0.90;;;;;;;;;;5025233;28;20034;-43
2022/06/28 05:35:09;;;;;;;0.98;0.98;;;;;;;;;;5026974;28;20484;-48
2022/06/28 05:37:35;;;;;;;5.72;1.00;;;;;;;;;;5024476;28;20029;-47
2022/06/28 05:40:02;;;;;;;1.40;1.10;;;;;;;;;;5028369;28;20029;-44
2022/06/28 05:42:28;;;;;;;5.90;1.15;;;;;;;;;;5028875;28;20029;-46
2022/06/28 05:44:54;;;;;;;4.43;1.63;;;;;;;;;;5029143;28;20025;-45
2022/06/28 05:47:19;;;;;;;2.00;1.23;;;;;;;;;;5028151;28;20041;-47
2022/06/28 05:49:45;;;;;;;2.53;1.10;;;;;;;;;;5035095;28;20021;-44
2022/06/28 05:52:12;;;;;;;1.25;0.85;;;;;;;;;;5027719;28;20478;-49
2022/06/28 05:54:37;;;;;;;3.60;0.90;;;;;;;;;;5030200;28;20116;-44
2022/06/28 05:57:03;;;;;;;2.72;0.88;;;;;;;;;;5032595;28;20486;-46
2022/06/28 05:59:29;;;;;;;3.35;0.85;;;;;;;;;;5028850;28;20047;-48
2022/06/28 06:01:55;;;;;;;2.85;0.80;;;;;;;;;;5030413;28;20034;-47
2022/06/28 06:04:24;;;;;;;1.42;0.93;;;;;;;;;;5028248;28;20045;-44
2022/06/28 06:06:51;;;;;;;3.13;1.10;;;;;;;;;;5029564;28;29854;-46
2022/06/28 06:09:17;;;;;;;2.72;1.00;;;;;;;;;;5027674;28;20037;-49
2022/06/28 06:11:44;;;;;;;4.68;1.10;;;;;;;;;;5029714;28;20040;-47
2022/06/28 06:14:10;;;;;;;4.32;1.17;;;;;;;;;;5028352;28;20112;-49
2022/06/28 06:16:36;;;;;;;4.88;1.10;;;;;;;;;;5027923;28;20036;-44
2022/06/28 06:19:02;;;;;;;10.93;1.27;;;;;;;;;;5029908;28;20033;-48
2022/06/28 06:21:28;;;;;;;9.43;1.20;;;;;;;;;;5031263;28;20032;-46
2022/06/28 06:23:54;;;;;;;3.13;1.20;;;;;;;;;;5025867;28;20120;-43
2022/06/28 06:26:20;;;;;;;3.50;0.93;;;;;;;;;;5029454;28;20045;-46
2022/06/28 06:28:45;;;;;;;8.52;1.40;;;;;;;;;;5024155;28;20022;-44
2022/06/28 06:31:12;;;;;;;5.75;1.52;;;;;;;;;;5028279;28;20047;-45
2022/06/28 06:33:38;;;;;;;5.18;1.20;;;;;;;;;;5027319;28;20040;-44
2022/06/28 06:36:04;;;;;;;4.82;1.30;;;;;;;;;;5023665;28;20470;-47
2022/06/28 06:38:30;;;;;;;5.88;1.20;;;;;;;;;;5022830;28;20036;-46
2022/06/28 06:40:58;;;;;;;7.25;1.00;;;;;;;;;;5025297;28;20466;-48
2022/06/28 06:43:27;;;;;;;4.00;1.02;;;;;;;;;;5024522;28;20078;-50
2022/06/28 06:45:54;;;;;;;5.45;1.10;;;;;;;;;;5026020;28;20449;-51
2022/06/28 06:48:23;;;;;;;2.00;0.80;;;;;;;;;;5031021;28;20045;-52
2022/06/28 06:50:49;;;;;;;2.53;1.20;;;;;;;;;;5026120;28;20030;-52
2022/06/28 06:53:15;;;;;;;1.83;1.15;;;;;;;;;;5027074;28;20030;-46
2022/06/28 06:55:41;;;;;;;2.25;1.25;;;;;;;;;;5023148;28;20037;-44
2022/06/28 06:58:07;;;;;;;2.67;1.00;;;;;;;;;;5022368;28;20057;-50
2022/06/28 07:00:34;;;;;;;3.88;1.23;;;;;;;;;;5025963;28;20057;-45
2022/06/28 07:03:02;;;;;;;2.83;0.90;;;;;;;;;;5020626;28;20030;-49
2022/06/28 07:05:29;;;;;;;5.10;1.75;;;;;;;;;;5017962;28;20053;-47
2022/06/28 07:07:54;;;;;;;3.42;1.10;;;;;;;;;;5020624;28;20034;-52
2022/06/28 07:10:20;;;;;;;4.47;1.30;;;;;;;;;;5024816;28;20028;-46
2022/06/28 07:12:46;;;;;;;12.48;1.27;;;;;;;;;;5019760;28;20453;-49
2022/06/28 07:15:12;;;;;;;3.95;1.17;;;;;;;;;;5021273;28;20124;-49
2022/06/28 07:17:38;;;;;;;2.50;1.23;;;;;;;;;;5020430;28;20394;-45
2022/06/28 07:20:04;;;;;;;6.78;1.48;;;;;;;;;;5022890;28;20355;-44
2022/06/28 07:22:30;;;;;;;3.78;1.67;;;;;;;;;;5020966;28;20474;-46
2022/06/28 07:24:56;;;;;;;11.77;1.30;;;;;;;;;;5021363;28;20044;-44
2022/06/28 07:27:22;;;;;;;5.78;1.30;;;;;;;;;;5025228;28;20030;-45
2022/06/28 07:29:49;;;;;;;5.40;1.50;;;;;;;;;;5026569;28;20030;-47
2022/06/28 07:32:15;;;;;;;5.47;1.30;;;;;;;;;;5020534;28;20033;-45
2022/06/28 07:34:41;;;;;;;5.28;1.52;;;;;;;;;;5020528;28;20084;-48
2022/06/28 07:37:06;;;;;;;2.63;1.15;;;;;;;;;;5022481;28;20395;-49
2022/06/28 07:39:32;;;;;;;3.97;1.65;;;;;;;;;;5051144;28;20105;-48
2022/06/28 07:41:58;;;;;;;12.27;1.60;;;;;;;;;;5025095;28;20363;-48
2022/06/28 07:44:24;;;;;;;3.40;1.50;;;;;;;;;;5023086;28;20512;-49
2022/06/28 07:46:50;;;;;;;8.20;1.58;;;;;;;;;;5024100;28;20430;-49
2022/06/28 07:49:15;;;;;;;6.18;1.27;;;;;;;;;;5025334;28;20041;-47
2022/06/28 07:54:26;;;;;;;17.35;1.80;;;;;;;;;;5028155;28;20036;-46
2022/06/28 07:56:52;;;;;;;3.75;1.40;;;;;;;;;;5023204;28;20045;-44
2022/06/28 07:59:18;;;;;;;5.57;1.33;;;;;;;;;;5026655;28;20025;-52
2022/06/28 08:01:43;;;;;;;2.28;1.17;;;;;;;;;;5023553;28;20060;-47
2022/06/28 08:04:11;;;;;;;7.53;1.20;;;;;;;;;;5025867;28;20124;-45
2022/06/28 08:06:37;;;;;;;1.45;1.20;;;;;;;;;;5026858;28;20421;-44
2022/06/28 08:09:04;;;;;;;3.25;1.08;;;;;;;;;;5028210;28;20164;-44
2022/06/28 08:11:29;;;;;;;8.50;1.27;;;;;;;;;;5026308;28;20049;-46
2022/06/28 08:13:55;;;;;;;4.00;1.13;;;;;;;;;;5025190;28;20041;-48
2022/06/28 08:16:21;;;;;;;2.05;1.10;;;;;;;;;;5026913;28;20394;-49
2022/06/28 08:18:47;;;;;;;4.57;1.30;;;;;;;;;;5024847;28;20044;-50
2022/06/28 08:21:12;;;;;;;3.00;1.30;;;;;;;;;;5027527;28;20029;-46
2022/06/28 08:23:38;;;;;;;2.97;1.02;;;;;;;;;;5025691;28;20037;-48
2022/06/28 08:26:04;;;;;;;8.98;1.40;;;;;;;;;;5025141;28;20086;-50
2022/06/28 08:28:29;;;;;;;1.67;1.20;;;;;;;;;;5023723;28;20421;-45
2022/06/28 08:30:55;;;;;;;3.92;1.55;;;;;;;;;;5022328;28;20036;-49
2022/06/28 08:33:20;;;;;;;7.82;1.30;;;;;;;;;;5024220;28;20444;-44
2022/06/28 08:35:46;;;;;;;9.57;1.75;;;;;;;;;;5040159;28;20029;-49
2022/06/28 08:38:12;;;;;;;11.77;1.50;;;;;;;;;;5023710;28;20025;-44
2022/06/28 08:40:39;;;;;;;1.27;1.13;;;;;;;;;;5024572;28;20805;-53
2022/06/28 08:43:06;;;;;;;9.60;1.73;;;;;;;;;;5023672;28;20151;-52
2022/06/28 08:45:32;;;;;;;7.15;1.55;;;;;;;;;;5024639;28;20476;-45
2022/06/28 08:48:07;;;;;;;10.57;1.52;;;;;;;;;;5025671;28;20025;-46
2022/06/28 08:50:38;;;;;;;7.13;1.52;;;;;;;;;;5024840;28;20037;-44
2022/06/28 08:53:06;;;;;;;3.88;1.42;;;;;;;;;;5024665;28;20193;-47
2022/06/28 08:55:33;;;;;;;6.15;1.58;;;;;;;;;;5026984;28;20029;-45
2022/06/28 08:58:06;;;;;;;4.10;1.30;;;;;;;;;;5025827;28;20033;-49
2022/06/28 09:00:32;;;;;;;1.20;1.05;;;;;;;;;;5025401;28;20122;-50
2022/06/28 09:02:58;;;;;;;4.57;1.33;;;;;;;;;;5023935;28;20033;-50
2022/06/28 09:05:26;;;;;;;1.33;1.23;;;;;;;;;;5023805;28;20041;-50
2022/06/28 09:07:56;;;;;;;2.38;1.40;;;;;;;;;;5026101;28;20040;-44
2022/06/28 09:10:23;;;;;;;5.75;1.20;;;;;;;;;;5025069;28;20026;-47
2022/06/28 09:12:55;;;;;;;5.65;1.33;;;;;;;;;;5024509;28;20033;-50
2022/06/28 09:15:22;;;;;;;6.80;1.70;;;;;;;;;;5028981;28;20121;-52
2022/06/28 09:17:52;;;;;;;6.20;1.33;;;;;;;;;;5029704;28;20041;-50
2022/06/28 09:20:18;;;;;;;6.05;1.67;;;;;;;;;;5028979;28;20029;-46
2022/06/28 09:22:45;;;;;;;5.22;1.33;;;;;;;;;;5029660;28;20402;-49
2022/06/28 09:25:13;;;;;;;3.80;2.05;;;;;;;;;;5028785;28;20061;-48
2022/06/28 09:27:41;;;;;;;11.77;1.50;;;;;;;;;;5027851;28;20025;-51
2022/06/28 09:30:12;;;;;;;4.28;1.30;;;;;;;;;;5027622;28;20087;-44
2022/06/28 09:32:39;;;;;;;3.83;1.27;;;;;;;;;;5029026;28;20473;-51
2022/06/28 09:35:09;;;;;;;4.55;1.10;;;;;;;;;;5028789;28;20036;-46
2022/06/28 09:37:35;;;;;;;4.70;1.42;;;;;;;;;;5028803;28;20025;-51
2022/06/28 09:40:18;;;;;;;5.15;1.20;;;;;;;;;;5028967;28;20384;-52
2022/06/28 09:42:46;;;;;;;7.53;1.50;;;;;;;;;;5028035;28;20034;-50
2022/06/28 09:45:14;;;;;;;4.25;1.40;;;;;;;;;;5028136;28;20078;-52
2022/06/28 09:47:43;;;;;;;7.00;1.10;;;;;;;;;;5028373;28;20087;-51
2022/06/28 09:50:10;;;;;;;4.90;1.52;;;;;;;;;;5029440;28;20478;-51
2022/06/28 09:52:43;;;;;;;3.38;1.10;;;;;;;;;;5026251;28;20116;-52
2022/06/28 09:55:08;;;;;;;6.50;1.30;;;;;;;;;;5028964;28;20052;-47
2022/06/28 09:57:34;;;;;;;8.27;1.48;;;;;;;;;;5029711;28;20033;-49
2022/06/28 10:00:01;;;;;;;7.72;1.52;;;;;;;;;;5029645;28;20501;-49
2022/06/28 10:02:33;;;;;;;3.60;1.48;;;;;;;;;;5029155;28;20039;-52
2022/06/28 10:05:01;;;;;;;5.25;1.60;;;;;;;;;;5027463;28;20140;-50
2022/06/28 10:07:31;;;;;;;6.22;1.38;;;;;;;;;;5026455;28;20033;-53
2022/06/28 10:09:58;;;;;;;3.95;1.52;;;;;;;;;;5026204;28;20041;-52
2022/06/28 10:15:09;;;;;;;4.28;1.30;;;;;;;;;;5028227;28;20422;-46
2022/06/28 10:17:43;;;;;;;2.92;1.50;;;;;;;;;;5026804;28;20085;-45
2022/06/28 10:20:11;;;;;;;3.00;1.40;;;;;;;;;;5025230;28;20045;-51
2022/06/28 10:22:37;;;;;;;1.25;0.90;;;;;;;;;;5028724;28;20029;-45
2022/06/28 10:25:13;;;;;;;2.83;1.25;;;;;;;;;;5027401;28;20040;-46
2022/06/28 10:27:57;;;;;;;2.95;1.10;;;;;;;;;;5029363;28;20040;-47
2022/06/28 10:30:28;;;;;;;4.05;1.50;;;;;;;;;;5029114;28;20059;-44
2022/06/28 10:33:01;;;;;;;1.63;1.33;;;;;;;;;;5028501;28;20386;-44
2022/06/28 10:35:32;;;;;;;5.28;1.35;;;;;;;;;;5027191;28;20044;-43
2022/06/28 10:38:07;;;;;;;4.65;1.27;;;;;;;;;;5027434;28;20645;-44
2022/06/28 10:40:38;;;;;;;3.00;1.45;;;;;;;;;;5025257;28;20500;-45
2022/06/28 10:43:04;;;;;;;1.73;1.30;;;;;;;;;;5026263;28;20087;-54
2022/06/28 10:46:09;;;;;;;2.65;0.98;;;;;;;;;;5029859;28;20498;-48
2022/06/28 10:49:08;;;;;;;6.72;1.33;;;;;;;;;;4985297;28;20035;-48
2022/06/28 10:51:35;;;;;;;8.77;1.20;;;;;;;;;;4971360;28;20121;-43
2022/06/28 10:54:07;;;;;;;3.70;1.17;;;;;;;;;;4982240;28;20035;-44
2022/06/28 10:56:38;;;;;;;1.20;1.10;;;;;;;;;;4981586;28;20042;-44
2022/06/28 10:59:14;;;;;;;4.32;1.52;;;;;;;;;;4982103;28;20034;-45
2022/06/28 11:01:40;;;;;;;2.42;1.10;;;;;;;;;;4983491;28;20116;-44
2022/06/28 11:04:23;;;;;;;5.43;1.45;;;;;;;;;;4978593;28;20923;-44
2022/06/28 11:06:56;;;;;;;3.45;1.20;;;;;;;;;;4982112;28;20050;-43
2022/06/28 11:09:59;;;;;;;1.58;1.10;;;;;;;;;;4982335;28;20030;-44
2022/06/28 11:12:27;;;;;;;4.55;1.30;;;;;;;;;;4980505;28;20038;-45
2022/06/28 11:15:06;;;;;;;4.55;1.33;;;;;;;;;;4985805;28;20459;-44
2022/06/28 11:17:40;;;;;;;1.50;0.95;;;;;;;;;;4980772;28;20038;-47
2022/06/28 11:20:06;;;;;;;5.05;0.98;;;;;;;;;;5017054;28;20557;-46
2022/06/28 11:22:37;;;;;;;4.85;1.48;;;;;;;;;;5027954;28;20025;-44
2022/06/28 11:25:05;;;;;;;3.17;1.30;;;;;;;;;;5027415;28;20033;-45
2022/06/28 11:27:32;;;;;;;5.57;1.30;;;;;;;;;;5028426;28;20490;-49
2022/06/28 11:30:00;;;;;;;9.85;1.45;;;;;;;;;;5027922;28;20438;-48
2022/06/28 11:32:49;;;;;;;1.67;1.30;;;;;;;;;;5025223;28;20057;-44
2022/06/28 11:35:20;;;;;;;5.25;1.40;;;;;;;;;;5027502;28;20037;-48
2022/06/28 11:37:59;;;;;;;5.85;1.60;;;;;;;;;;5024888;28;20139;-48
2022/06/28 11:40:45;;;;;;;5.18;1.25;;;;;;;;;;5025086;28;20041;-48
2022/06/28 11:43:13;;;;;;;3.65;1.50;;;;;;;;;;5026429;28;20362;-45
2022/06/28 11:45:42;;;;;;;5.43;1.50;;;;;;;;;;5026830;28;20026;-44
2022/06/28 11:48:31;;;;;;;3.85;1.70;;;;;;;;;;5027708;28;20049;-47
2022/06/28 11:50:59;;;;;;;6.93;1.70;;;;;;;;;;5022667;28;22406;-44
2022/06/28 11:53:25;;;;;;;5.57;1.63;;;;;;;;;;5026009;28;20087;-50
2022/06/28 11:55:53;;;;;;;6.18;1.40;;;;;;;;;;5025539;28;20500;-46
2022/06/28 11:58:32;;;;;;;2.90;1.65;;;;;;;;;;5026958;28;20038;-46
2022/06/28 12:01:04;;;;;;;7.93;1.77;;;;;;;;;;5025919;28;20026;-43
2022/06/28 12:03:32;;;;;;;3.80;1.70;;;;;;;;;;5027650;28;20033;-45
2022/06/28 12:06:00;;;;;;;4.07;1.70;;;;;;;;;;5026309;28;20045;-44
2022/06/28 12:08:41;;;;;;;2.65;1.33;;;;;;;;;;5024378;28;20109;-44
2022/06/28 12:11:07;;;;;;;2.78;1.23;;;;;;;;;;5024770;28;20041;-46
2022/06/28 12:13:33;;;;;;;5.65;1.52;;;;;;;;;;5026396;28;20079;-46
2022/06/28 12:15:59;;;;;;;5.25;1.77;;;;;;;;;;5024366;28;20068;-45
2022/06/28 12:18:24;;;;;;;5.82;1.17;;;;;;;;;;5027120;28;20065;-49
2022/06/28 12:20:57;;;;;;;1.75;1.20;;;;;;;;;;5026080;28;20831;-46
2022/06/28 12:23:22;;;;;;;4.10;1.55;;;;;;;;;;5024747;28;20033;-51
2022/06/28 12:26:00;;;;;;;8.85;1.52;;;;;;;;;;5023902;28;20128;-48
2022/06/28 12:28:26;;;;;;;4.57;1.30;;;;;;;;;;5024845;28;20033;-47
2022/06/28 12:30:52;;;;;;;4.00;1.30;;;;;;;;;;5025469;28;20036;-47
2022/06/28 12:33:17;;;;;;;3.92;1.38;;;;;;;;;;5027875;28;20474;-47
2022/06/28 12:35:43;;;;;;;6.18;1.20;;;;;;;;;;5024799;28;20517;-45
2022/06/28 12:38:09;;;;;;;4.28;1.30;;;;;;;;;;5025015;28;20043;-47
2022/06/28 12:40:34;;;;;;;3.97;1.42;;;;;;;;;;5025976;28;20478;-44
2022/06/28 12:43:00;;;;;;;7.55;1.35;;;;;;;;;;5025936;28;20132;-44
2022/06/28 12:45:25;;;;;;;4.32;1.58;;;;;;;;;;5027710;28;20045;-44
2022/06/28 12:47:51;;;;;;;4.70;1.55;;;;;;;;;;5024602;28;20434;-47
2022/06/28 12:50:17;;;;;;;4.47;1.40;;;;;;;;;;5026013;28;20026;-45
2022/06/28 12:52:43;;;;;;;3.08;1.10;;;;;;;;;;5024850;28;20030;-44
2022/06/28 12:55:13;;;;;;;4.75;1.20;;;;;;;;;;5026590;28;20378;-46
2022/06/28 12:57:39;;;;;;;1.80;1.30;;;;;;;;;;5025841;28;20031;-50
2022/06/28 13:00:08;;;;;;;3.78;1.27;;;;;;;;;;5026626;28;20483;-45
2022/06/28 13:02:34;;;;;;;5.15;1.25;;;;;;;;;;5025501;28;20068;-44
2022/06/28 13:05:00;;;;;;;5.55;1.20;;;;;;;;;;5024652;28;20073;-45
2022/06/28 13:07:26;;;;;;;4.20;0.98;;;;;;;;;;5037900;28;20087;-44
2022/06/28 13:09:52;;;;;;;3.47;1.15;;;;;;;;;;5024622;28;20057;-47
2022/06/28 13:12:18;;;;;;;5.53;1.17;;;;;;;;;;5028163;28;20021;-45
2022/06/28 13:14:43;;;;;;;4.72;1.20;;;;;;;;;;5025306;28;20041;-45
2022/06/28 13:17:09;;;;;;;8.82;1.20;;;;;;;;;;5025075;28;20688;-45
2022/06/28 13:19:35;;;;;;;9.77;1.60;;;;;;;;;;5024011;28;20116;-45
2022/06/28 13:22:00;;;;;;;2.35;1.10;;;;;;;;;;5022869;28;20025;-47
2022/06/28 13:24:26;;;;;;;8.07;1.65;;;;;;;;;;5026466;28;20173;-46
2022/06/28 13:26:52;;;;;;;5.78;1.10;;;;;;;;;;5023521;28;20030;-45
2022/06/28 13:29:18;;;;;;;11.55;1.55;;;;;;;;;;5025627;28;20082;-44
2022/06/28 13:31:44;;;;;;;4.95;1.10;;;;;;;;;;5023321;28;20038;-44
2022/06/28 13:34:10;;;;;;;4.20;1.33;;;;;;;;;;5026226;28;20108;-44
2022/06/28 13:36:36;;;;;;;5.18;1.30;;;;;;;;;;5024913;28;20116;-44
2022/06/28 13:39:03;;;;;;;5.35;1.30;;;;;;;;;;5024245;28;20040;-45
2022/06/28 13:41:29;;;;;;;1.65;1.08;;;;;;;;;;5025282;28;20029;-45
2022/06/28 13:43:54;;;;;;;10.70;1.30;;;;;;;;;;5025549;28;20513;-45
2022/06/28 13:46:21;;;;;;;3.10;1.00;;;;;;;;;;5025148;28;20025;-44
2022/06/28 13:48:47;;;;;;;4.63;1.20;;;;;;;;;;5024202;28;20025;-46
2022/06/28 13:51:13;;;;;;;2.35;1.33;;;;;;;;;;5026409;28;20079;-45
2022/06/28 13:53:38;;;;;;;2.90;1.08;;;;;;;;;;5024661;28;20673;-44
2022/06/28 13:56:05;;;;;;;4.95;1.05;;;;;;;;;;5024508;28;20049;-45
2022/06/28 13:58:31;;;;;;;5.10;1.20;;;;;;;;;;5024902;28;20478;-48
2022/06/28 14:00:58;;;;;;;7.43;1.08;;;;;;;;;;5027719;28;20079;-44
2022/06/28 14:03:25;;;;;;;5.95;1.60;;;;;;;;;;5031625;28;20029;-44
2022/06/28 14:05:52;;;;;;;3.63;1.23;;;;;;;;;;5025643;28;20524;-44
2022/06/28 14:08:18;;;;;;;2.92;1.23;;;;;;;;;;5026822;28;20389;-45
2022/06/28 14:10:43;;;;;;;7.00;1.67;;;;;;;;;;5028095;28;20030;-47
2022/06/28 14:13:10;;;;;;;4.45;1.30;;;;;;;;;;5029433;28;20036;-44
2022/06/28 14:15:36;;;;;;;3.05;1.42;;;;;;;;;;5028687;28;20025;-47
2022/06/28 14:18:02;;;;;;;4.03;1.05;;;;;;;;;;5028170;28;20048;-46
2022/06/28 14:20:28;;;;;;;7.50;1.25;;;;;;;;;;5027549;28;20056;-45
2022/06/28 14:22:54;;;;;;;3.80;1.40;;;;;;;;;;5029138;28;20191;-48
2022/06/28 14:25:20;;;;;;;3.80;1.42;;;;;;;;;;5028377;28;20120;-46
2022/06/28 14:27:46;;;;;;;2.67;1.20;;;;;;;;;;5028884;28;20044;-47
2022/06/28 14:30:12;;;;;;;5.15;1.25;;;;;;;;;;5026655;28;20103;-45
2022/06/28 14:32:38;;;;;;;4.50;1.23;;;;;;;;;;5025753;28;20426;-45
2022/06/28 14:35:05;;;;;;;4.32;1.38;;;;;;;;;;5026043;28;20026;-47
2022/06/28 14:37:30;;;;;;;5.05;1.38;;;;;;;;;;5028713;28;20044;-44
2022/06/28 14:39:56;;;;;;;4.05;1.42;;;;;;;;;;5027323;28;20050;-47
2022/06/28 14:42:22;;;;;;;3.30;1.17;;;;;;;;;;5030196;28;20172;-44
2022/06/28 14:44:49;;;;;;;3.28;1.35;;;;;;;;;;5025737;28;20117;-44
2022/06/28 14:47:14;;;;;;;5.38;1.40;;;;;;;;;;5027279;28;20034;-46
2022/06/28 14:49:40;;;;;;;1.80;1.23;;;;;;;;;;5025723;28;20025;-44
2022/06/28 14:52:06;;;;;;;8.50;1.40;;;;;;;;;;5026805;28;20124;-45
2022/06/28 14:54:32;;;;;;;7.53;1.65;;;;;;;;;;5021511;28;20184;-44
2022/06/28 14:56:59;;;;;;;2.03;1.10;;;;;;;;;;5023643;28;20394;-45
2022/06/28 14:59:25;;;;;;;1.75;1.30;;;;;;;;;;5024246;28;20029;-45